Terminal Aerodrome Forecast
Issued by NWS Wilmington, OH

Current Version | Previous Version | Graphics & Text | Print | Product List | Glossary On
Versions: 1 2 3 4 5 6 7 8 9 10 11 12 13 14 15 16 17 18 19 20 21 22 23 24 25
000
FTUS41 KILN 191312 AAB
TAFILN
TAF AMD
KILN 191312Z 1913/2012 20010KT P6SM VCSH BKN015 OVC050
      TEMPO 1914/1916 3SM -SHRA
     FM191600 22011KT P6SM BKN025 OVC050
     FM192000 22012KT P6SM VCTS BKN035CB
     FM192300 23010KT P6SM BKN040
     FM200100 24004KT P6SM BKN035=

USA.gov is the U.S. government's official web portal to all federal, state and local government web resources and services.